EGPFEGNM

Guest
Details From EGPF - Glasgow
To EGNM - Leeds Bradford
Flight Number -
Tags generated
Created
Modified
Stats Distance 154 nm / 285 km
Max Altitude 13,000 ft / 3,962 m
Waypoints 3
Social Downloads 3
Likes 0
Share VATSIM

Download

Looking for another format? Having issues loading an existing format? Contact us
Advertisement - Login to hide

Notes

Basic altitude profile: - Ascent Rate: 1800ft/min - Ascent Speed: 250kts - Cruise Altitude: 14000ft - Cruise Speed: 330kts - Descent Rate: 1500ft/min - Descent Speed: 250kts

Route

EGPF MARGO EGNM

ID Type Via Altitude Latitude Longitude Leg Dist Tot Dist Heading (true) Name
O EGPF APT - 0 ft / 0 m 55.87173˚ -4.43365˚ - 0 nm - Glasgow
MARGO FIX - 13,000 ft / 3,962 m 54.70750˚ -2.77472˚ 90 nm 90 nm 140° / 142° -
O EGNM APT - 0 ft / 0 m 53.86603˚ -1.66078˚ 63 nm 153 nm 142° / 143° Leeds Bradford

Altitude Profile

Advertisement - Login to hide

EGPF

Details ICAO EGPF (GLA)
Name Glasgow
Region United Kingdom
Timezone Europe/London (UTC+1.0)
Stats Elevation 26 ft / 8 m (AMSL)
Location 55.871728° -4.433648°
Runways 1
Magnetic Variation 2.655° W

METAR

EGPF 252020Z AUTO 09012KT 9999 NCD 17/07 Q1026

Decode

TAF

TAF TAF EGPF 251658Z 2518/2618 08008KT 9999 FEW045 TEMPO 2518/2524 07015G25KT PROB30 TEMPO 2521/2606 8000 -SHRA

Decode

Departure Runways

ID Width Length Bearing (true) Bearing (mag) Surface Threshold Offset Overrun Length
05 151 ft / 46 m 8,721 ft / 2,658 m 46.34° 49.00° Asphalt 0 ft / 0 m 499 ft / 152 m
23 151 ft / 46 m 8,721 ft / 2,658 m 226.37° 229.03° Asphalt 1,004 ft / 306 m 0 ft / 0 m

EGNM

Details ICAO EGNM (LBA)
Name Leeds Bradford
Region United Kingdom
Timezone Europe/London (UTC+1.0)
Stats Elevation 681 ft / 208 m (AMSL)
Location 53.866027° -1.660778°
Runways 1
Magnetic Variation 1.228° W

METAR

EGNM 252020Z 01011KT 350V050 3500 BR SCT002 BKN003 11/11 Q1022

Decode

TAF

TAF AMD EGNM 251727Z 2518/2618 01012KT 2000 -DZ BR BKN002 TEMPO 2518/2604 0300 DZ FG BKN000 PROB30 TEMPO 2518/2604 6000 NSW SCT002 BKN005 BECMG 2604/2607 9999 NSW SCT025 PROB30 TEMPO 2607/2610 6000 SHRA BECMG 2609/2612 07010KT

Decode

Destination Runways

ID Width Length Bearing (true) Bearing (mag) Surface Threshold Offset Overrun Length
14 151 ft / 46 m 7,377 ft / 2,248 m 137.79° 139.02° Concrete 1,024 ft / 312 m 46 ft / 14 m
32 151 ft / 46 m 7,377 ft / 2,248 m 317.81° 319.04° Concrete 899 ft / 274 m 49 ft / 15 m

Approach Navaids

Runway Type Ident Frequency Range Bearing (true) Bearing (mag) Slope Elevation
14 Localiser ILBF 110.90 MHz 18 nm / 33 km 137.73° 138.95° - 681 ft / 208 m (AMSL)
14 Glidescope ILBF 110.90 MHz 10 nm / 19 km 137.80° 139.02° 3.50° 681 ft / 208 m (AMSL)
14 DME ILBF 110.90 MHz 18 nm / 33 km - - - 681 ft / 208 m (AMSL)
32 Localiser ILF 110.90 MHz 18 nm / 33 km 317.80° 319.02° - 681 ft / 208 m (AMSL)
32 Glidescope ILF 110.90 MHz 10 nm / 19 km 317.80° 319.02° 3.00° 681 ft / 208 m (AMSL)
32 DME ILF 110.90 MHz 18 nm / 33 km - - - 687 ft / 209 m (AMSL)

Popular Alternatives